Mechanicsburg, IL (62545)

7:50 PM CDT on August 27, 2016 (GMT -0500)
S. Lanesville | | Change Station

Elev 591 ft 39.85 °N, 89.35 °W | Updated 13 minutes ago

Partly Cloudy
Partly Cloudy
80.1 °F
Feels Like 85 °F
N
3.0
Wind Variable Wind from SE
Gusts 6.0 mph

Today
High -- | Low -- °F
--% Chance of Precip.
Yesterday
High -- | Low -- °F
Precip. -- in
Pressure 30.02 in
Visibility 10.0 miles
Clouds Few 4800 ft
Heat Index 85 °F
Dew Point 75 °F
Humidity 85%
Rainfall 0.00 in
Snow Depth Not available.
6:21 AM 7:35 PM
Waning Crescent, 20% visible
METAR KSPI 272352Z 00000KT 10SM FEW048 28/24 A3003 RMK AO2 LTG DSNT E-S RAB26E38 SLP164 P0000 60000 T02830239 10328 20283 51002
Pressure 30.02 in
Visibility 10.0 miles
Clouds Few 4800 ft
Heat Index 85 °F
Dew Point 75 °F
Humidity 85%
Rainfall 0.00 in
Snow Depth Not available.
6:21 AM 7:35 PM
Waning Crescent, 20% visible
METAR KSPI 272352Z 00000KT 10SM FEW048 28/24 A3003 RMK AO2 LTG DSNT E-S RAB26E38 SLP164 P0000 60000 T02830239 10328 20283 51002

10-Day Weather Forecast

Almanac

Astronomy

Aug. 27, 2016 Rise Set
Actual Time
Civil Twilight
Nautical Twilight
Astronomical Twilight
Moon
Length of Visible Light
Length of Day
Tomorrow will be .
, % of the Moon is Illuminated

Today's Extremes

State Highs State Lows

Community

WunderPhotos

Upload Photos

1,935,475 photos uploaded!

WunderBlog® & News

Nearby

Air Quality

  Air Quality AQ Index Pollutant
Not available.

Snow Depth

Station Depth Elevation

Earthquake Activity

City Distance Mag. Time & Date
Minimum magnitude displayed is 2.5.

Coastal Water Temperatures

Place Temperature

Stations

Nearby Weather Stations

Station Location Temp. Windchill Dew Point Humidity Wind Precip. Elev Updated Type
                   

Watches & Warnings

There are currently no watches in effect.